Portada
METAR-TAF:

METAR-TAF

Aeroports :

Carmi Municipal Airport

Carmi, Illinois, Estats Units d'Amèrica

latitud: 38-05-22N, longitud: 088-07-23W, altitud: 118 m

Observació

L'informe es va fer fa 38 minuts, a les 19:55 UTC
Vent 5 kt del Nord
Temperatura 6°C
Humitat 70%
Pressió 1020 hPa
Visibilitat: 16.1 km
Cel ennuvolat a una alçada de 2000 ft

METAR: KCUL 221955Z AUTO 36005KT 10SM BKN020 06/01 A3013 RMK AO2

Hora: 14:33 (20:33 UTC)


TAF: manca

Observacions i pronòstics meteorològics de més de 4000 aeroports (METAR i TAF).

Les estacions disponibles són els punts grocs i vermells al mapa.

Posi el ratolí al punt desitjat per veure el nom de l'estació.

Feu clic per veure les observacions i els pronòstics meteorològics.

Per canviar el mapa: feu clic els botons verds amb una creu de color negre per apropar; al botó verd amb un guió per allunyar la imatge; o en les fletxes verdes per a mapes adjacents.


METAR-TAF: